Terminal Aerodrome Forecast
Issued by NWS Wilmington, NC

Home | Current Version | Previous Version | Text Only | Print | Product List | Glossary On
Versions: 1 2 3 4 5 6 7 8 9 10 11 12 13 14 15 16 17
000
FTUS42 KILM 021722
TAFFLO
TAF
KFLO 021722Z 0218/0318 VRB05KT P6SM SCT050 SCT250
     FM030300 21004KT P6SM BKN080
     FM030800 28002KT 5SM BR BKN080
     FM031300 32005KT P6SM SCT080 SCT250=

USA.gov is the U.S. government's official web portal to all federal, state and local government web resources and services.